sensor_id;sensor_type;location;lat;lon;timestamp;pressure;altitude;pressure_sealevel;temperature;humidity
46081;BME280;31821;51.880;-0.518;2022-08-21T00:00:54;100578.97;;;27.64;29.51
46081;BME280;31821;51.880;-0.518;2022-08-21T00:03:19;100625.19;;;27.92;29.66
46081;BME280;31821;51.880;-0.518;2022-08-21T00:05:48;100592.22;;;27.74;29.45
46081;BME280;31821;51.880;-0.518;2022-08-21T00:08:16;100623.19;;;27.89;29.01
46081;BME280;31821;51.880;-0.518;2022-08-21T00:10:43;100568.56;;;27.54;29.41
46081;BME280;31821;51.880;-0.518;2022-08-21T00:13:09;100635.25;;;27.97;29.16
46081;BME280;31821;51.880;-0.518;2022-08-21T00:15:36;100580.63;;;27.62;29.09
46081;BME280;31821;51.880;-0.518;2022-08-21T00:18:03;100598.28;;;27.77;29.46
46081;BME280;31821;51.880;-0.518;2022-08-21T00:20:30;100562.91;;;27.54;29.19
46081;BME280;31821;51.880;-0.518;2022-08-21T00:22:56;100590.66;;;27.70;29.19
46081;BME280;31821;51.880;-0.518;2022-08-21T00:25:22;100580.50;;;27.72;29.29
46081;BME280;31821;51.880;-0.518;2022-08-21T00:27:48;100564.06;;;27.60;29.26
46081;BME280;31821;51.880;-0.518;2022-08-21T00:30:16;100555.94;;;27.62;29.25
46081;BME280;31821;51.880;-0.518;2022-08-21T00:32:42;100591.31;;;27.85;29.56
46081;BME280;31821;51.880;-0.518;2022-08-21T00:35:12;100605.38;;;27.92;29.34
46081;BME280;31821;51.880;-0.518;2022-08-21T00:37:39;100601.75;;;27.92;29.49
46081;BME280;31821;51.880;-0.518;2022-08-21T00:40:07;100580.38;;;27.83;29.33
46081;BME280;31821;51.880;-0.518;2022-08-21T00:42:34;100592.81;;;27.93;28.93
46081;BME280;31821;51.880;-0.518;2022-08-21T00:45:00;100559.56;;;27.66;29.25
46081;BME280;31821;51.880;-0.518;2022-08-21T00:47:25;100546.66;;;27.62;29.06
46081;BME280;31821;51.880;-0.518;2022-08-21T00:49:51;100533.78;;;27.53;29.41
46081;BME280;31821;51.880;-0.518;2022-08-21T00:52:22;100533.38;;;27.55;29.18
46081;BME280;31821;51.880;-0.518;2022-08-21T00:54:50;100537.00;;;27.55;29.34
46081;BME280;31821;51.880;-0.518;2022-08-21T00:57:20;100532.94;;;27.56;29.28
46081;BME280;31821;51.880;-0.518;2022-08-21T00:59:49;100474.72;;;27.17;29.59
46081;BME280;31821;51.880;-0.518;2022-08-21T01:02:17;100574.75;;;27.80;29.82
46081;BME280;31821;51.880;-0.518;2022-08-21T01:04:43;100577.22;;;27.78;29.57
46081;BME280;31821;51.880;-0.518;2022-08-21T01:07:10;100576.41;;;27.77;29.34
46081;BME280;31821;51.880;-0.518;2022-08-21T01:09:36;100512.94;;;27.36;29.42
46081;BME280;31821;51.880;-0.518;2022-08-21T01:12:02;100519.78;;;27.39;29.59
46081;BME280;31821;51.880;-0.518;2022-08-21T01:14:28;100529.88;;;27.43;29.52
46081;BME280;31821;51.880;-0.518;2022-08-21T01:16:56;100512.97;;;27.29;29.58
46081;BME280;31821;51.880;-0.518;2022-08-21T01:19:23;100589.34;;;27.78;29.25
46081;BME280;31821;51.880;-0.518;2022-08-21T01:21:50;100588.56;;;27.78;29.59
46081;BME280;31821;51.880;-0.518;2022-08-21T01:24:15;100563.25;;;27.59;29.62
46081;BME280;31821;51.880;-0.518;2022-08-21T01:26:42;100584.19;;;27.69;29.46
46081;BME280;31821;51.880;-0.518;2022-08-21T01:32:07;100586.25;;;27.65;29.49
46081;BME280;31821;51.880;-0.518;2022-08-21T01:34:36;100539.97;;;27.37;29.81
46081;BME280;31821;51.880;-0.518;2022-08-21T01:37:02;100575.84;;;27.55;29.53
46081;BME280;31821;51.880;-0.518;2022-08-21T01:39:28;100557.31;;;27.43;29.73
46081;BME280;31821;51.880;-0.518;2022-08-21T01:41:54;100565.78;;;27.50;29.91
46081;BME280;31821;51.880;-0.518;2022-08-21T01:44:23;100593.88;;;27.68;29.49
46081;BME280;31821;51.880;-0.518;2022-08-21T01:46:50;100495.03;;;27.05;29.91
46081;BME280;31821;51.880;-0.518;2022-08-21T01:49:16;100597.97;;;27.67;29.48
46081;BME280;31821;51.880;-0.518;2022-08-21T01:51:42;100524.81;;;27.20;29.51
46081;BME280;31821;51.880;-0.518;2022-08-21T01:54:08;100598.38;;;27.66;30.02
46081;BME280;31821;51.880;-0.518;2022-08-21T01:56:42;100587.88;;;27.66;29.52
46081;BME280;31821;51.880;-0.518;2022-08-21T01:59:09;100586.66;;;27.64;29.24
46081;BME280;31821;51.880;-0.518;2022-08-21T02:01:35;100583.03;;;27.63;29.71
46081;BME280;31821;51.880;-0.518;2022-08-21T02:04:00;100559.72;;;27.48;29.58
46081;BME280;31821;51.880;-0.518;2022-08-21T02:06:26;100549.72;;;27.36;29.88
46081;BME280;31821;51.880;-0.518;2022-08-21T02:08:52;100566.22;;;27.45;29.95
46081;BME280;31821;51.880;-0.518;2022-08-21T02:11:18;100592.38;;;27.60;29.65
46081;BME280;31821;51.880;-0.518;2022-08-21T02:13:44;100550.50;;;27.37;29.65
46081;BME280;31821;51.880;-0.518;2022-08-21T02:16:09;100548.16;;;27.32;29.86
46081;BME280;31821;51.880;-0.518;2022-08-21T02:18:36;100562.19;;;27.46;29.58
46081;BME280;31821;51.880;-0.518;2022-08-21T02:21:02;100593.59;;;27.59;29.61
46081;BME280;31821;51.880;-0.518;2022-08-21T02:23:27;100558.56;;;27.38;29.84
46081;BME280;31821;51.880;-0.518;2022-08-21T02:25:56;100546.13;;;27.32;29.88
46081;BME280;31821;51.880;-0.518;2022-08-21T02:28:21;100598.50;;;27.55;29.61
46081;BME280;31821;51.880;-0.518;2022-08-21T02:30:47;100584.75;;;27.53;29.93
46081;BME280;31821;51.880;-0.518;2022-08-21T02:33:14;100520.84;;;27.10;29.93
46081;BME280;31821;51.880;-0.518;2022-08-21T02:35:41;100585.59;;;27.50;30.00
46081;BME280;31821;51.880;-0.518;2022-08-21T02:38:10;100560.66;;;27.34;29.50
46081;BME280;31821;51.880;-0.518;2022-08-21T02:40:39;100569.41;;;27.51;29.67
46081;BME280;31821;51.880;-0.518;2022-08-21T02:43:07;100579.56;;;27.48;29.79
46081;BME280;31821;51.880;-0.518;2022-08-21T02:45:33;100579.97;;;27.43;29.91
46081;BME280;31821;51.880;-0.518;2022-08-21T02:48:02;100583.16;;;27.49;29.83
46081;BME280;31821;51.880;-0.518;2022-08-21T02:50:34;100539.81;;;27.13;29.49
46081;BME280;31821;51.880;-0.518;2022-08-21T02:53:01;100570.78;;;27.32;30.07
46081;BME280;31821;51.880;-0.518;2022-08-21T02:55:28;100592.53;;;27.46;29.86
46081;BME280;31821;51.880;-0.518;2022-08-21T02:57:55;100586.03;;;27.45;29.82
46081;BME280;31821;51.880;-0.518;2022-08-21T03:00:23;100582.41;;;27.45;29.62
46081;BME280;31821;51.880;-0.518;2022-08-21T03:02:49;100590.91;;;27.45;29.77
46081;BME280;31821;51.880;-0.518;2022-08-21T03:05:16;100516.13;;;26.96;30.11
46081;BME280;31821;51.880;-0.518;2022-08-21T03:07:43;100549.06;;;27.21;29.84
46081;BME280;31821;51.880;-0.518;2022-08-21T03:10:09;100553.47;;;27.22;29.86
46081;BME280;31821;51.880;-0.518;2022-08-21T03:12:35;100585.63;;;27.43;29.73
46081;BME280;31821;51.880;-0.518;2022-08-21T03:15:07;100581.56;;;27.48;29.47
46081;BME280;31821;51.880;-0.518;2022-08-21T03:17:34;100536.13;;;27.17;30.08
46081;BME280;31821;51.880;-0.518;2022-08-21T03:19:59;100583.63;;;27.43;30.11
46081;BME280;31821;51.880;-0.518;2022-08-21T03:22:26;100579.16;;;27.42;30.08
46081;BME280;31821;51.880;-0.518;2022-08-21T03:24:52;100559.41;;;27.39;29.86
46081;BME280;31821;51.880;-0.518;2022-08-21T03:27:17;100551.34;;;27.34;29.64
46081;BME280;31821;51.880;-0.518;2022-08-21T03:29:43;100551.75;;;27.36;30.19
46081;BME280;31821;51.880;-0.518;2022-08-21T03:32:08;100538.41;;;27.33;29.81
46081;BME280;31821;51.880;-0.518;2022-08-21T03:34:38;100508.66;;;27.17;29.95
46081;BME280;31821;51.880;-0.518;2022-08-21T03:37:06;100562.56;;;27.48;29.77
46081;BME280;31821;51.880;-0.518;2022-08-21T03:39:32;100570.66;;;27.46;29.82
46081;BME280;31821;51.880;-0.518;2022-08-21T03:41:57;100532.78;;;27.29;29.79
46081;BME280;31821;51.880;-0.518;2022-08-21T03:44:24;100514.38;;;27.13;29.63
46081;BME280;31821;51.880;-0.518;2022-08-21T03:46:49;100526.78;;;27.23;29.77
46081;BME280;31821;51.880;-0.518;2022-08-21T03:49:15;100573.13;;;27.44;29.97
46081;BME280;31821;51.880;-0.518;2022-08-21T03:51:40;100518.38;;;27.16;29.57
46081;BME280;31821;51.880;-0.518;2022-08-21T03:54:06;100547.69;;;27.37;29.74
46081;BME280;31821;51.880;-0.518;2022-08-21T03:56:31;100561.75;;;27.48;29.76
46081;BME280;31821;51.880;-0.518;2022-08-21T03:58:57;100554.47;;;27.43;29.78
46081;BME280;31821;51.880;-0.518;2022-08-21T04:01:23;100558.56;;;27.42;30.08
46081;BME280;31821;51.880;-0.518;2022-08-21T04:03:49;100558.56;;;27.46;29.92
46081;BME280;31821;51.880;-0.518;2022-08-21T04:06:14;100559.34;;;27.42;29.90
46081;BME280;31821;51.880;-0.518;2022-08-21T04:08:40;100543.72;;;27.31;30.02
46081;BME280;31821;51.880;-0.518;2022-08-21T04:11:08;100563.84;;;27.40;29.74
46081;BME280;31821;51.880;-0.518;2022-08-21T04:13:36;100544.94;;;27.30;29.94
46081;BME280;31821;51.880;-0.518;2022-08-21T04:16:01;100535.69;;;27.22;29.71
46081;BME280;31821;51.880;-0.518;2022-08-21T04:18:27;100555.88;;;27.27;29.99
46081;BME280;31821;51.880;-0.518;2022-08-21T04:20:53;100560.63;;;27.38;29.91
46081;BME280;31821;51.880;-0.518;2022-08-21T04:23:20;100559.78;;;27.37;29.53
46081;BME280;31821;51.880;-0.518;2022-08-21T04:25:46;100452.50;;;26.70;29.78
46081;BME280;31821;51.880;-0.518;2022-08-21T04:28:11;100462.16;;;26.73;30.20
46081;BME280;31821;51.880;-0.518;2022-08-21T04:30:37;100530.97;;;27.08;29.92
46081;BME280;31821;51.880;-0.518;2022-08-21T04:33:03;100559.91;;;27.26;29.91
46081;BME280;31821;51.880;-0.518;2022-08-21T04:35:29;100543.84;;;27.16;29.96
46081;BME280;31821;51.880;-0.518;2022-08-21T04:37:56;100535.06;;;27.03;30.42
46081;BME280;31821;51.880;-0.518;2022-08-21T04:40:24;100532.25;;;27.03;29.95
46081;BME280;31821;51.880;-0.518;2022-08-21T04:42:56;100571.69;;;27.21;29.79
46081;BME280;31821;51.880;-0.518;2022-08-21T04:45:34;100569.63;;;27.25;30.14
46081;BME280;31821;51.880;-0.518;2022-08-21T04:48:02;100561.59;;;27.20;30.02
46081;BME280;31821;51.880;-0.518;2022-08-21T04:50:45;100562.75;;;27.26;30.29
46081;BME280;31821;51.880;-0.518;2022-08-21T04:53:23;100562.00;;;27.19;29.86
46081;BME280;31821;51.880;-0.518;2022-08-21T04:55:50;100527.84;;;26.99;30.01
46081;BME280;31821;51.880;-0.518;2022-08-21T04:58:19;100574.84;;;27.31;30.04
46081;BME280;31821;51.880;-0.518;2022-08-21T05:00:48;100579.28;;;27.28;29.89
46081;BME280;31821;51.880;-0.518;2022-08-21T05:03:16;100587.38;;;27.30;30.02
46081;BME280;31821;51.880;-0.518;2022-08-21T05:05:43;100546.78;;;27.05;29.57
46081;BME280;31821;51.880;-0.518;2022-08-21T05:08:11;100454.41;;;26.35;29.98
46081;BME280;31821;51.880;-0.518;2022-08-21T05:10:37;100554.13;;;26.95;30.33
46081;BME280;31821;51.880;-0.518;2022-08-21T05:13:03;100569.41;;;27.05;30.41
46081;BME280;31821;51.880;-0.518;2022-08-21T05:15:30;100575.47;;;27.04;30.11
46081;BME280;31821;51.880;-0.518;2022-08-21T05:17:57;100552.94;;;26.93;30.30
46081;BME280;31821;51.880;-0.518;2022-08-21T05:20:22;100533.22;;;26.82;29.97
46081;BME280;31821;51.880;-0.518;2022-08-21T05:22:48;100543.72;;;26.81;30.12
46081;BME280;31821;51.880;-0.518;2022-08-21T05:25:14;100599.31;;;27.06;30.24
46081;BME280;31821;51.880;-0.518;2022-08-21T05:27:39;100608.19;;;27.05;29.83
46081;BME280;31821;51.880;-0.518;2022-08-21T05:30:08;100610.16;;;27.11;29.88
46081;BME280;31821;51.880;-0.518;2022-08-21T05:32:34;100561.13;;;26.73;30.05
46081;BME280;31821;51.880;-0.518;2022-08-21T05:35:01;100610.19;;;27.08;30.27
46081;BME280;31821;51.880;-0.518;2022-08-21T05:37:26;100614.63;;;27.09;30.28
46081;BME280;31821;51.880;-0.518;2022-08-21T05:39:52;100606.63;;;27.00;29.62
46081;BME280;31821;51.880;-0.518;2022-08-21T05:42:17;100601.41;;;26.95;30.04
46081;BME280;31821;51.880;-0.518;2022-08-21T05:44:43;100583.31;;;26.81;30.09
46081;BME280;31821;51.880;-0.518;2022-08-21T05:47:09;100585.72;;;26.83;30.33
46081;BME280;31821;51.880;-0.518;2022-08-21T05:49:36;100618.28;;;27.06;30.16
46081;BME280;31821;51.880;-0.518;2022-08-21T05:52:02;100627.53;;;27.13;30.28
46081;BME280;31821;51.880;-0.518;2022-08-21T05:54:29;100615.50;;;27.02;30.21
46081;BME280;31821;51.880;-0.518;2022-08-21T05:56:55;100625.13;;;27.08;30.60
46081;BME280;31821;51.880;-0.518;2022-08-21T05:59:20;100600.63;;;26.91;30.33
46081;BME280;31821;51.880;-0.518;2022-08-21T06:01:46;100612.34;;;26.93;30.17
46081;BME280;31821;51.880;-0.518;2022-08-21T06:04:12;100627.13;;;27.11;30.12
46081;BME280;31821;51.880;-0.518;2022-08-21T06:06:37;100592.56;;;26.89;30.36
46081;BME280;31821;51.880;-0.518;2022-08-21T06:09:04;100569.56;;;26.76;30.10
46081;BME280;31821;51.880;-0.518;2022-08-21T06:11:30;100576.47;;;26.79;30.27
46081;BME280;31821;51.880;-0.518;2022-08-21T06:13:56;100591.78;;;26.85;30.36
46081;BME280;31821;51.880;-0.518;2022-08-21T06:16:22;100624.72;;;27.13;30.04
46081;BME280;31821;51.880;-0.518;2022-08-21T06:18:47;100603.41;;;26.94;30.22
46081;BME280;31821;51.880;-0.518;2022-08-21T06:21:14;100637.63;;;27.15;30.23
46081;BME280;31821;51.880;-0.518;2022-08-21T06:23:40;100625.13;;;27.08;30.16
46081;BME280;31821;51.880;-0.518;2022-08-21T06:26:07;100639.22;;;27.19;30.25
46081;BME280;31821;51.880;-0.518;2022-08-21T06:28:33;100573.66;;;26.75;29.97
46081;BME280;31821;51.880;-0.518;2022-08-21T06:30:59;100615.06;;;27.04;30.20
46081;BME280;31821;51.880;-0.518;2022-08-21T06:33:25;100641.25;;;27.15;29.86
46081;BME280;31821;51.880;-0.518;2022-08-21T06:35:51;100568.78;;;26.76;30.13
46081;BME280;31821;51.880;-0.518;2022-08-21T06:38:16;100576.84;;;26.81;30.16
46081;BME280;31821;51.880;-0.518;2022-08-21T06:40:42;100584.84;;;26.93;29.99
46081;BME280;31821;51.880;-0.518;2022-08-21T06:43:13;100624.69;;;27.17;30.35
46081;BME280;31821;51.880;-0.518;2022-08-21T06:45:39;100625.47;;;27.18;29.94
46081;BME280;31821;51.880;-0.518;2022-08-21T06:48:05;100545.78;;;26.74;30.15
46081;BME280;31821;51.880;-0.518;2022-08-21T06:50:33;100565.50;;;26.88;29.88
46081;BME280;31821;51.880;-0.518;2022-08-21T06:55:25;100559.06;;;26.84;29.95
46081;BME280;31821;51.880;-0.518;2022-08-21T06:57:51;100598.06;;;27.11;30.22
46081;BME280;31821;51.880;-0.518;2022-08-21T07:00:16;100610.53;;;27.17;30.13
46081;BME280;31821;51.880;-0.518;2022-08-21T07:02:42;100604.03;;;27.17;30.10
46081;BME280;31821;51.880;-0.518;2022-08-21T07:05:08;100544.94;;;26.77;30.14
46081;BME280;31821;51.880;-0.518;2022-08-21T07:07:33;100517.97;;;26.65;30.14
46081;BME280;31821;51.880;-0.518;2022-08-21T07:09:59;100602.41;;;27.23;30.11
46081;BME280;31821;51.880;-0.518;2022-08-21T07:12:24;100604.41;;;27.22;30.11
46081;BME280;31821;51.880;-0.518;2022-08-21T07:14:51;100596.75;;;27.23;30.19
46081;BME280;31821;51.880;-0.518;2022-08-21T07:17:17;100606.00;;;27.23;30.18
46081;BME280;31821;51.880;-0.518;2022-08-21T07:19:42;100600.78;;;27.22;30.11
46081;BME280;31821;51.880;-0.518;2022-08-21T07:22:08;100605.22;;;27.23;29.96
46081;BME280;31821;51.880;-0.518;2022-08-21T07:24:34;100611.28;;;27.25;30.17
46081;BME280;31821;51.880;-0.518;2022-08-21T07:26:59;100584.38;;;27.02;30.01
46081;BME280;31821;51.880;-0.518;2022-08-21T07:29:25;100575.97;;;26.91;29.64
46081;BME280;31821;51.880;-0.518;2022-08-21T07:31:51;100579.88;;;27.08;29.97
46081;BME280;31821;51.880;-0.518;2022-08-21T07:34:16;100616.13;;;27.24;29.96
46081;BME280;31821;51.880;-0.518;2022-08-21T07:36:42;100624.56;;;27.32;29.89
46081;BME280;31821;51.880;-0.518;2022-08-21T07:39:07;100551.31;;;26.92;29.79
46081;BME280;31821;51.880;-0.518;2022-08-21T07:41:33;100591.13;;;27.19;29.74
46081;BME280;31821;51.880;-0.518;2022-08-21T07:44:00;100601.50;;;27.33;29.68
46081;BME280;31821;51.880;-0.518;2022-08-21T07:46:26;100599.41;;;27.41;29.85
46081;BME280;31821;51.880;-0.518;2022-08-21T07:48:52;100598.97;;;27.42;29.69
46081;BME280;31821;51.880;-0.518;2022-08-21T07:51:19;100588.53;;;27.36;30.34
46081;BME280;31821;51.880;-0.518;2022-08-21T07:53:50;100605.03;;;27.48;29.92
46081;BME280;31821;51.880;-0.518;2022-08-21T07:56:16;100566.38;;;27.27;29.70
46081;BME280;31821;51.880;-0.518;2022-08-21T07:58:41;100468.31;;;26.64;29.93
46081;BME280;31821;51.880;-0.518;2022-08-21T08:01:07;100598.16;;;27.49;29.77
46081;BME280;31821;51.880;-0.518;2022-08-21T08:03:33;100526.59;;;27.03;29.92
46081;BME280;31821;51.880;-0.518;2022-08-21T08:05:59;100591.72;;;27.41;30.11
46081;BME280;31821;51.880;-0.518;2022-08-21T08:08:25;100612.63;;;27.58;29.78
46081;BME280;31821;51.880;-0.518;2022-08-21T08:10:50;100611.38;;;27.59;29.85
46081;BME280;31821;51.880;-0.518;2022-08-21T08:13:17;100607.75;;;27.59;29.57
46081;BME280;31821;51.880;-0.518;2022-08-21T08:15:42;100590.44;;;27.50;29.79
46081;BME280;31821;51.880;-0.518;2022-08-21T08:18:08;100606.91;;;27.62;29.44
46081;BME280;31821;51.880;-0.518;2022-08-21T08:20:33;100586.41;;;27.51;29.46
46081;BME280;31821;51.880;-0.518;2022-08-21T08:22:59;100592.41;;;27.56;29.55
46081;BME280;31821;51.880;-0.518;2022-08-21T08:25:27;100553.81;;;27.28;29.58
46081;BME280;31821;51.880;-0.518;2022-08-21T08:27:53;100585.22;;;27.48;29.89
46081;BME280;31821;51.880;-0.518;2022-08-21T08:30:19;100593.09;;;27.68;29.43
46081;BME280;31821;51.880;-0.518;2022-08-21T08:32:46;100595.88;;;27.71;29.72
46081;BME280;31821;51.880;-0.518;2022-08-21T08:35:12;100602.38;;;27.72;29.60
46081;BME280;31821;51.880;-0.518;2022-08-21T08:37:38;100601.13;;;27.73;29.55
46081;BME280;31821;51.880;-0.518;2022-08-21T08:40:11;100535.59;;;27.33;29.61
46081;BME280;31821;51.880;-0.518;2022-08-21T08:42:37;100605.88;;;27.83;29.65
46081;BME280;31821;51.880;-0.518;2022-08-21T08:45:11;100607.13;;;27.82;29.88
46081;BME280;31821;51.880;-0.518;2022-08-21T08:47:40;100584.66;;;27.64;29.25
46081;BME280;31821;51.880;-0.518;2022-08-21T08:50:35;100558.09;;;27.51;29.27
46081;BME280;31821;51.880;-0.518;2022-08-21T08:53:06;100618.41;;;27.86;29.57
46081;BME280;31821;51.880;-0.518;2022-08-21T08:55:43;100605.13;;;27.79;29.53
46081;BME280;31821;51.880;-0.518;2022-08-21T08:58:12;100600.72;;;27.74;29.85
46081;BME280;31821;51.880;-0.518;2022-08-21T09:00:43;100622.38;;;27.92;29.35
46081;BME280;31821;51.880;-0.518;2022-08-21T09:03:10;100601.03;;;27.84;29.82
46081;BME280;31821;51.880;-0.518;2022-08-21T09:08:16;100619.09;;;27.94;29.17
46081;BME280;31821;51.880;-0.518;2022-08-21T09:11:09;100622.28;;;27.99;29.60
46081;BME280;31821;51.880;-0.518;2022-08-21T09:13:38;100623.88;;;28.00;29.64
46081;BME280;31821;51.880;-0.518;2022-08-21T09:21:43;100604.94;;;27.94;29.29
46081;BME280;31821;51.880;-0.518;2022-08-21T09:24:32;100618.19;;;28.08;28.68
46081;BME280;31821;51.880;-0.518;2022-08-21T09:27:07;100615.72;;;28.06;29.09
46081;BME280;31821;51.880;-0.518;2022-08-21T09:29:36;100618.19;;;28.08;29.65
46081;BME280;31821;51.880;-0.518;2022-08-21T09:32:10;100605.38;;;27.92;29.51
46081;BME280;31821;51.880;-0.518;2022-08-21T09:34:36;100560.78;;;27.65;29.50
46081;BME280;31821;51.880;-0.518;2022-08-21T09:37:01;100633.94;;;28.05;29.71
46081;BME280;31821;51.880;-0.518;2022-08-21T09:39:39;100570.78;;;27.73;29.88
46081;BME280;31821;51.880;-0.518;2022-08-21T09:42:07;100587.31;;;27.79;29.04
46081;BME280;31821;51.880;-0.518;2022-08-21T09:44:36;100616.16;;;28.04;29.94
46081;BME280;31821;51.880;-0.518;2022-08-21T09:47:09;100601.75;;;27.92;29.71
46081;BME280;31821;51.880;-0.518;2022-08-21T09:49:39;100610.94;;;27.99;29.29
46081;BME280;31821;51.880;-0.518;2022-08-21T09:52:20;100610.94;;;28.03;29.44
46081;BME280;31821;51.880;-0.518;2022-08-21T09:54:51;100612.16;;;28.02;29.70
46081;BME280;31821;51.880;-0.518;2022-08-21T09:57:26;100613.72;;;28.07;29.77
46081;BME280;31821;51.880;-0.518;2022-08-21T10:02:43;100616.59;;;28.03;29.68
46081;BME280;31821;51.880;-0.518;2022-08-21T10:05:17;100635.06;;;28.18;29.48
46081;BME280;31821;51.880;-0.518;2022-08-21T10:07:43;100618.16;;;28.11;29.08
46081;BME280;31821;51.880;-0.518;2022-08-21T10:10:22;100580.81;;;27.82;29.39
46081;BME280;31821;51.880;-0.518;2022-08-21T10:26:59;100619.16;;;28.25;29.49
46081;BME280;31821;51.880;-0.518;2022-08-21T10:37:41;100627.28;;;28.26;28.90
46081;BME280;31821;51.880;-0.518;2022-08-21T10:40:19;100624.84;;;28.25;29.33
46081;BME280;31821;51.880;-0.518;2022-08-21T10:43:21;100620.00;;;28.25;29.40
46081;BME280;31821;51.880;-0.518;2022-08-21T10:48:54;100613.50;;;28.25;29.42
46081;BME280;31821;51.880;-0.518;2022-08-21T10:51:42;100616.34;;;28.25;29.44
46081;BME280;31821;51.880;-0.518;2022-08-21T10:57:04;100579.72;;;28.07;29.73
46081;BME280;31821;51.880;-0.518;2022-08-21T10:59:51;100618.34;;;28.28;29.38
46081;BME280;31821;51.880;-0.518;2022-08-21T11:05:05;100581.00;;;28.02;28.97
46081;BME280;31821;51.880;-0.518;2022-08-21T11:07:37;100591.41;;;28.12;29.02
46081;BME280;31821;51.880;-0.518;2022-08-21T11:10:27;100603.88;;;28.18;29.76
46081;BME280;31821;51.880;-0.518;2022-08-21T11:13:05;100616.31;;;28.28;29.71
46081;BME280;31821;51.880;-0.518;2022-08-21T11:15:41;100581.34;;;28.04;29.34
46081;BME280;31821;51.880;-0.518;2022-08-21T11:18:22;100624.38;;;28.30;29.09
46081;BME280;31821;51.880;-0.518;2022-08-21T11:21:04;100624.06;;;28.24;29.55
46081;BME280;31821;51.880;-0.518;2022-08-21T11:23:49;100620.78;;;28.26;29.00
46081;BME280;31821;51.880;-0.518;2022-08-21T11:29:21;100577.44;;;27.94;29.48
46081;BME280;31821;51.880;-0.518;2022-08-21T11:32:01;100631.72;;;28.24;29.51
46081;BME280;31821;51.880;-0.518;2022-08-21T11:40:06;100634.16;;;28.25;29.76
46081;BME280;31821;51.880;-0.518;2022-08-21T11:45:27;100601.97;;;28.08;29.23
46081;BME280;31821;51.880;-0.518;2022-08-21T11:50:38;100632.13;;;28.26;29.53
46081;BME280;31821;51.880;-0.518;2022-08-21T11:55:43;100619.28;;;28.17;29.64
46081;BME280;31821;51.880;-0.518;2022-08-21T11:58:17;100605.09;;;28.17;29.62
46081;BME280;31821;51.880;-0.518;2022-08-21T12:00:47;100623.91;;;28.35;29.22
46081;BME280;31821;51.880;-0.518;2022-08-21T12:03:38;100620.22;;;28.38;29.58
46081;BME280;31821;51.880;-0.518;2022-08-21T12:06:08;100631.94;;;28.40;29.36
46081;BME280;31821;51.880;-0.518;2022-08-21T12:08:43;100635.97;;;28.43;29.27
46081;BME280;31821;51.880;-0.518;2022-08-21T12:11:20;100627.00;;;28.44;29.29
46081;BME280;31821;51.880;-0.518;2022-08-21T12:16:45;100612.22;;;28.33;28.96
46081;BME280;31821;51.880;-0.518;2022-08-21T12:21:52;100625.38;;;28.47;29.35
46081;BME280;31821;51.880;-0.518;2022-08-21T12:24:20;100614.41;;;28.49;29.32
46081;BME280;31821;51.880;-0.518;2022-08-21T12:27:13;100618.44;;;28.51;29.44
46081;BME280;31821;51.880;-0.518;2022-08-21T12:29:46;100584.31;;;28.28;29.24
46081;BME280;31821;51.880;-0.518;2022-08-21T12:34:41;100595.03;;;28.44;29.21
46081;BME280;31821;51.880;-0.518;2022-08-21T12:37:15;100597.72;;;28.55;29.85
46081;BME280;31821;51.880;-0.518;2022-08-21T12:39:46;100604.59;;;28.57;30.01
46081;BME280;31821;51.880;-0.518;2022-08-21T12:42:20;100604.59;;;28.57;29.54
46081;BME280;31821;51.880;-0.518;2022-08-21T12:44:55;100594.53;;;28.52;29.19
46081;BME280;31821;51.880;-0.518;2022-08-21T12:47:26;100591.63;;;28.56;29.22
46081;BME280;31821;51.880;-0.518;2022-08-21T12:50:09;100592.00;;;28.58;29.61
46081;BME280;31821;51.880;-0.518;2022-08-21T12:52:45;100592.81;;;28.59;29.80
46081;BME280;31821;51.880;-0.518;2022-08-21T12:55:15;100595.63;;;28.59;29.66
46081;BME280;31821;51.880;-0.518;2022-08-21T12:57:50;100547.91;;;28.26;29.52
46081;BME280;31821;51.880;-0.518;2022-08-21T13:00:21;100597.69;;;28.58;29.43
46081;BME280;31821;51.880;-0.518;2022-08-21T13:02:49;100599.28;;;28.59;29.18
46081;BME280;31821;51.880;-0.518;2022-08-21T13:05:30;100591.59;;;28.60;29.48
46081;BME280;31821;51.880;-0.518;2022-08-21T13:07:58;100589.53;;;28.60;28.96
46081;BME280;31821;51.880;-0.518;2022-08-21T13:10:30;100585.09;;;28.59;29.68
46081;BME280;31821;51.880;-0.518;2022-08-21T13:12:59;100566.19;;;28.49;29.53
46081;BME280;31821;51.880;-0.518;2022-08-21T13:15:31;100538.22;;;28.24;29.20
46081;BME280;31821;51.880;-0.518;2022-08-21T13:17:58;100581.84;;;28.61;29.71
46081;BME280;31821;51.880;-0.518;2022-08-21T13:20:35;100491.06;;;28.06;29.27
46081;BME280;31821;51.880;-0.518;2022-08-21T13:23:06;100585.84;;;28.63;29.71
46081;BME280;31821;51.880;-0.518;2022-08-21T13:25:36;100587.47;;;28.64;29.50
46081;BME280;31821;51.880;-0.518;2022-08-21T13:28:10;100584.63;;;28.64;29.84
46081;BME280;31821;51.880;-0.518;2022-08-21T13:30:45;100547.34;;;28.39;29.44
46081;BME280;31821;51.880;-0.518;2022-08-21T13:33:14;100577.41;;;28.60;29.64
46081;BME280;31821;51.880;-0.518;2022-08-21T13:38:25;100518.69;;;28.29;29.85
46081;BME280;31821;51.880;-0.518;2022-08-21T13:41:08;100582.56;;;28.65;29.28
46081;BME280;31821;51.880;-0.518;2022-08-21T13:43:36;100590.16;;;28.75;29.51
46081;BME280;31821;51.880;-0.518;2022-08-21T13:46:08;100497.09;;;28.12;29.02
46081;BME280;31821;51.880;-0.518;2022-08-21T13:48:35;100568.19;;;28.52;29.63
46081;BME280;31821;51.880;-0.518;2022-08-21T13:51:02;100528.41;;;28.32;29.65
46081;BME280;31821;51.880;-0.518;2022-08-21T13:55:58;100573.28;;;28.64;29.06
46081;BME280;31821;51.880;-0.518;2022-08-21T13:58:45;100570.81;;;28.66;29.09
46081;BME280;31821;51.880;-0.518;2022-08-21T14:04:07;100570.38;;;28.68;29.70
46081;BME280;31821;51.880;-0.518;2022-08-21T14:06:38;100522.69;;;28.35;29.71
46081;BME280;31821;51.880;-0.518;2022-08-21T14:11:54;100570.38;;;28.68;29.20